sensor_id;sensor_type;location;lat;lon;timestamp;P1;durP1;ratioP1;P2;durP2;ratioP2
26042;SDS011;13818;52.156;5.382;2022-09-09T00:02:16;2.20;;;0.90;;
26042;SDS011;13818;52.156;5.382;2022-09-09T00:04:48;1.92;;;0.80;;
26042;SDS011;13818;52.156;5.382;2022-09-09T00:07:21;2.85;;;0.88;;
26042;SDS011;13818;52.156;5.382;2022-09-09T00:10:00;2.42;;;0.95;;
26042;SDS011;13818;52.156;5.382;2022-09-09T00:12:40;1.80;;;0.77;;
26042;SDS011;13818;52.156;5.382;2022-09-09T00:15:15;1.90;;;0.70;;
26042;SDS011;13818;52.156;5.382;2022-09-09T00:17:47;1.45;;;0.80;;
26042;SDS011;13818;52.156;5.382;2022-09-09T00:20:21;2.28;;;0.85;;
26042;SDS011;13818;52.156;5.382;2022-09-09T00:22:55;2.25;;;0.80;;
26042;SDS011;13818;52.156;5.382;2022-09-09T00:25:27;1.42;;;0.80;;
26042;SDS011;13818;52.156;5.382;2022-09-09T00:28:00;3.63;;;1.00;;
26042;SDS011;13818;52.156;5.382;2022-09-09T00:30:28;4.50;;;1.10;;
26042;SDS011;13818;52.156;5.382;2022-09-09T00:32:59;3.10;;;0.88;;
26042;SDS011;13818;52.156;5.382;2022-09-09T00:35:29;2.42;;;1.10;;
26042;SDS011;13818;52.156;5.382;2022-09-09T00:38:00;2.20;;;1.02;;
26042;SDS011;13818;52.156;5.382;2022-09-09T00:40:33;2.70;;;1.00;;
26042;SDS011;13818;52.156;5.382;2022-09-09T00:45:55;3.22;;;0.63;;
26042;SDS011;13818;52.156;5.382;2022-09-09T00:48:33;3.88;;;1.10;;
26042;SDS011;13818;52.156;5.382;2022-09-09T00:51:08;2.25;;;0.93;;
26042;SDS011;13818;52.156;5.382;2022-09-09T00:53:51;4.55;;;1.15;;
26042;SDS011;13818;52.156;5.382;2022-09-09T00:56:34;2.13;;;1.17;;
26042;SDS011;13818;52.156;5.382;2022-09-09T00:59:11;3.72;;;1.20;;
26042;SDS011;13818;52.156;5.382;2022-09-09T01:01:48;3.00;;;1.10;;
26042;SDS011;13818;52.156;5.382;2022-09-09T01:04:16;3.47;;;1.55;;
26042;SDS011;13818;52.156;5.382;2022-09-09T01:06:49;2.67;;;1.15;;
26042;SDS011;13818;52.156;5.382;2022-09-09T01:09:24;2.00;;;1.10;;
26042;SDS011;13818;52.156;5.382;2022-09-09T01:11:59;1.77;;;1.17;;
26042;SDS011;13818;52.156;5.382;2022-09-09T01:14:35;3.53;;;1.50;;
26042;SDS011;13818;52.156;5.382;2022-09-09T01:17:08;2.38;;;1.38;;
26042;SDS011;13818;52.156;5.382;2022-09-09T01:19:43;3.50;;;1.23;;
26042;SDS011;13818;52.156;5.382;2022-09-09T01:22:28;2.88;;;1.70;;
26042;SDS011;13818;52.156;5.382;2022-09-09T01:27:56;4.30;;;1.40;;
26042;SDS011;13818;52.156;5.382;2022-09-09T01:30:26;4.88;;;1.40;;
26042;SDS011;13818;52.156;5.382;2022-09-09T01:32:54;5.00;;;1.33;;
26042;SDS011;13818;52.156;5.382;2022-09-09T01:35:27;3.78;;;1.67;;
26042;SDS011;13818;52.156;5.382;2022-09-09T01:37:59;4.20;;;1.52;;
26042;SDS011;13818;52.156;5.382;2022-09-09T01:40:26;5.35;;;1.42;;
26042;SDS011;13818;52.156;5.382;2022-09-09T01:42:52;6.45;;;1.40;;
26042;SDS011;13818;52.156;5.382;2022-09-09T01:45:21;4.55;;;1.67;;
26042;SDS011;13818;52.156;5.382;2022-09-09T01:47:49;4.05;;;1.48;;
26042;SDS011;13818;52.156;5.382;2022-09-09T01:50:17;4.43;;;1.60;;
26042;SDS011;13818;52.156;5.382;2022-09-09T01:52:45;5.00;;;2.17;;
26042;SDS011;13818;52.156;5.382;2022-09-09T01:55:15;4.15;;;1.35;;
26042;SDS011;13818;52.156;5.382;2022-09-09T01:57:45;6.55;;;1.90;;
26042;SDS011;13818;52.156;5.382;2022-09-09T02:00:19;3.72;;;1.80;;
26042;SDS011;13818;52.156;5.382;2022-09-09T02:02:52;4.38;;;1.92;;
26042;SDS011;13818;52.156;5.382;2022-09-09T02:05:28;4.55;;;1.95;;
26042;SDS011;13818;52.156;5.382;2022-09-09T02:08:03;6.10;;;1.90;;
26042;SDS011;13818;52.156;5.382;2022-09-09T02:10:34;2.95;;;1.92;;
26042;SDS011;13818;52.156;5.382;2022-09-09T02:13:10;4.88;;;2.08;;
26042;SDS011;13818;52.156;5.382;2022-09-09T02:15:42;3.40;;;1.90;;
26042;SDS011;13818;52.156;5.382;2022-09-09T02:18:13;4.25;;;1.67;;
26042;SDS011;13818;52.156;5.382;2022-09-09T02:20:45;4.13;;;2.00;;
26042;SDS011;13818;52.156;5.382;2022-09-09T02:23:12;3.95;;;1.63;;
26042;SDS011;13818;52.156;5.382;2022-09-09T02:25:40;5.32;;;2.10;;
26042;SDS011;13818;52.156;5.382;2022-09-09T02:28:08;6.93;;;1.90;;
26042;SDS011;13818;52.156;5.382;2022-09-09T02:30:37;3.78;;;1.63;;
26042;SDS011;13818;52.156;5.382;2022-09-09T02:33:08;4.68;;;1.90;;
26042;SDS011;13818;52.156;5.382;2022-09-09T02:35:37;4.18;;;2.35;;
26042;SDS011;13818;52.156;5.382;2022-09-09T02:38:06;4.95;;;1.88;;
26042;SDS011;13818;52.156;5.382;2022-09-09T02:40:36;4.80;;;1.90;;
26042;SDS011;13818;52.156;5.382;2022-09-09T02:43:02;4.60;;;2.20;;
26042;SDS011;13818;52.156;5.382;2022-09-09T02:45:31;3.75;;;1.92;;
26042;SDS011;13818;52.156;5.382;2022-09-09T02:48:06;5.13;;;2.20;;
26042;SDS011;13818;52.156;5.382;2022-09-09T02:50:41;6.57;;;2.38;;
26042;SDS011;13818;52.156;5.382;2022-09-09T02:53:15;5.20;;;2.10;;
26042;SDS011;13818;52.156;5.382;2022-09-09T02:55:46;3.55;;;1.60;;
26042;SDS011;13818;52.156;5.382;2022-09-09T02:58:15;4.10;;;2.05;;
26042;SDS011;13818;52.156;5.382;2022-09-09T03:00:43;5.63;;;2.22;;
26042;SDS011;13818;52.156;5.382;2022-09-09T03:03:13;5.80;;;2.70;;
26042;SDS011;13818;52.156;5.382;2022-09-09T03:05:42;5.18;;;2.60;;
26042;SDS011;13818;52.156;5.382;2022-09-09T03:08:09;3.70;;;2.20;;
26042;SDS011;13818;52.156;5.382;2022-09-09T03:10:36;7.22;;;2.40;;
26042;SDS011;13818;52.156;5.382;2022-09-09T03:13:03;6.00;;;2.42;;
26042;SDS011;13818;52.156;5.382;2022-09-09T03:15:30;5.00;;;2.15;;
26042;SDS011;13818;52.156;5.382;2022-09-09T03:17:57;7.75;;;2.80;;
26042;SDS011;13818;52.156;5.382;2022-09-09T03:20:26;4.60;;;2.17;;
26042;SDS011;13818;52.156;5.382;2022-09-09T03:22:54;7.10;;;2.55;;
26042;SDS011;13818;52.156;5.382;2022-09-09T03:25:20;6.15;;;2.53;;
26042;SDS011;13818;52.156;5.382;2022-09-09T03:27:49;5.68;;;2.45;;
26042;SDS011;13818;52.156;5.382;2022-09-09T03:30:18;6.32;;;2.65;;
26042;SDS011;13818;52.156;5.382;2022-09-09T03:32:44;4.32;;;2.25;;
26042;SDS011;13818;52.156;5.382;2022-09-09T03:35:10;7.13;;;2.92;;
26042;SDS011;13818;52.156;5.382;2022-09-09T03:37:38;5.63;;;2.90;;
26042;SDS011;13818;52.156;5.382;2022-09-09T03:40:07;6.47;;;2.67;;
26042;SDS011;13818;52.156;5.382;2022-09-09T03:42:34;8.02;;;2.47;;
26042;SDS011;13818;52.156;5.382;2022-09-09T03:45:02;7.55;;;2.78;;
26042;SDS011;13818;52.156;5.382;2022-09-09T03:47:29;5.65;;;2.88;;
26042;SDS011;13818;52.156;5.382;2022-09-09T03:49:55;5.95;;;2.85;;
26042;SDS011;13818;52.156;5.382;2022-09-09T03:52:22;8.43;;;2.72;;
26042;SDS011;13818;52.156;5.382;2022-09-09T03:54:51;5.65;;;3.08;;
26042;SDS011;13818;52.156;5.382;2022-09-09T03:57:18;6.95;;;3.25;;
26042;SDS011;13818;52.156;5.382;2022-09-09T03:59:44;6.63;;;3.10;;
26042;SDS011;13818;52.156;5.382;2022-09-09T04:02:10;6.78;;;2.90;;
26042;SDS011;13818;52.156;5.382;2022-09-09T04:04:37;4.45;;;2.63;;
26042;SDS011;13818;52.156;5.382;2022-09-09T04:07:04;10.77;;;3.03;;
26042;SDS011;13818;52.156;5.382;2022-09-09T04:09:31;7.20;;;3.38;;
26042;SDS011;13818;52.156;5.382;2022-09-09T04:12:00;4.53;;;2.95;;
26042;SDS011;13818;52.156;5.382;2022-09-09T04:14:26;5.90;;;3.00;;
26042;SDS011;13818;52.156;5.382;2022-09-09T04:16:54;7.72;;;2.70;;
26042;SDS011;13818;52.156;5.382;2022-09-09T04:19:21;5.45;;;3.00;;
26042;SDS011;13818;52.156;5.382;2022-09-09T04:21:47;7.10;;;3.30;;
26042;SDS011;13818;52.156;5.382;2022-09-09T04:24:16;4.80;;;2.90;;
26042;SDS011;13818;52.156;5.382;2022-09-09T04:26:43;5.10;;;2.78;;
26042;SDS011;13818;52.156;5.382;2022-09-09T04:29:11;4.57;;;2.50;;
26042;SDS011;13818;52.156;5.382;2022-09-09T04:31:38;6.53;;;3.15;;
26042;SDS011;13818;52.156;5.382;2022-09-09T04:34:07;4.90;;;2.80;;
26042;SDS011;13818;52.156;5.382;2022-09-09T04:36:33;5.70;;;2.80;;
26042;SDS011;13818;52.156;5.382;2022-09-09T04:39:00;7.53;;;3.08;;
26042;SDS011;13818;52.156;5.382;2022-09-09T04:41:27;6.22;;;3.00;;
26042;SDS011;13818;52.156;5.382;2022-09-09T04:43:53;7.88;;;3.45;;
26042;SDS011;13818;52.156;5.382;2022-09-09T04:46:21;5.78;;;3.45;;
26042;SDS011;13818;52.156;5.382;2022-09-09T04:48:48;7.40;;;2.65;;
26042;SDS011;13818;52.156;5.382;2022-09-09T04:51:16;8.80;;;3.40;;
26042;SDS011;13818;52.156;5.382;2022-09-09T04:53:42;6.28;;;2.65;;
26042;SDS011;13818;52.156;5.382;2022-09-09T04:56:10;5.18;;;2.20;;
26042;SDS011;13818;52.156;5.382;2022-09-09T04:58:38;4.45;;;2.28;;
26042;SDS011;13818;52.156;5.382;2022-09-09T05:01:07;3.40;;;2.08;;
26042;SDS011;13818;52.156;5.382;2022-09-09T05:03:35;6.57;;;2.55;;
26042;SDS011;13818;52.156;5.382;2022-09-09T05:06:03;5.95;;;3.38;;
26042;SDS011;13818;52.156;5.382;2022-09-09T05:08:31;7.77;;;3.27;;
26042;SDS011;13818;52.156;5.382;2022-09-09T05:10:57;4.40;;;2.22;;
26042;SDS011;13818;52.156;5.382;2022-09-09T05:13:24;6.95;;;2.20;;
26042;SDS011;13818;52.156;5.382;2022-09-09T05:15:51;4.43;;;2.28;;
26042;SDS011;13818;52.156;5.382;2022-09-09T05:18:18;4.88;;;2.33;;
26042;SDS011;13818;52.156;5.382;2022-09-09T05:20:46;6.35;;;2.60;;
26042;SDS011;13818;52.156;5.382;2022-09-09T05:23:13;6.85;;;2.47;;
26042;SDS011;13818;52.156;5.382;2022-09-09T05:25:39;4.90;;;1.83;;
26042;SDS011;13818;52.156;5.382;2022-09-09T05:28:06;5.25;;;2.10;;
26042;SDS011;13818;52.156;5.382;2022-09-09T05:30:33;6.50;;;2.20;;
26042;SDS011;13818;52.156;5.382;2022-09-09T05:32:59;9.07;;;2.53;;
26042;SDS011;13818;52.156;5.382;2022-09-09T05:35:26;8.23;;;2.42;;
26042;SDS011;13818;52.156;5.382;2022-09-09T05:37:54;5.38;;;1.88;;
26042;SDS011;13818;52.156;5.382;2022-09-09T05:40:25;4.28;;;2.42;;
26042;SDS011;13818;52.156;5.382;2022-09-09T05:42:51;7.90;;;2.17;;
26042;SDS011;13818;52.156;5.382;2022-09-09T05:45:18;5.82;;;1.80;;
26042;SDS011;13818;52.156;5.382;2022-09-09T05:47:45;4.28;;;1.60;;
26042;SDS011;13818;52.156;5.382;2022-09-09T05:50:18;3.90;;;1.52;;
26042;SDS011;13818;52.156;5.382;2022-09-09T05:52:44;5.18;;;1.73;;
26042;SDS011;13818;52.156;5.382;2022-09-09T05:55:12;6.78;;;2.60;;
26042;SDS011;13818;52.156;5.382;2022-09-09T05:57:39;4.65;;;1.70;;
26042;SDS011;13818;52.156;5.382;2022-09-09T06:00:06;4.28;;;1.60;;
26042;SDS011;13818;52.156;5.382;2022-09-09T06:02:33;4.20;;;1.58;;
26042;SDS011;13818;52.156;5.382;2022-09-09T06:05:02;6.87;;;1.80;;
26042;SDS011;13818;52.156;5.382;2022-09-09T06:07:28;5.55;;;1.48;;
26042;SDS011;13818;52.156;5.382;2022-09-09T06:09:55;5.25;;;2.03;;
26042;SDS011;13818;52.156;5.382;2022-09-09T06:12:22;7.55;;;1.73;;
26042;SDS011;13818;52.156;5.382;2022-09-09T06:14:49;4.82;;;1.45;;
26042;SDS011;13818;52.156;5.382;2022-09-09T06:17:16;3.13;;;1.60;;
26042;SDS011;13818;52.156;5.382;2022-09-09T06:19:43;9.38;;;1.63;;
26042;SDS011;13818;52.156;5.382;2022-09-09T06:22:09;6.15;;;1.70;;
26042;SDS011;13818;52.156;5.382;2022-09-09T06:24:37;3.70;;;1.73;;
26042;SDS011;13818;52.156;5.382;2022-09-09T06:27:04;7.00;;;1.60;;
26042;SDS011;13818;52.156;5.382;2022-09-09T06:29:33;6.72;;;1.40;;
26042;SDS011;13818;52.156;5.382;2022-09-09T06:32:00;2.75;;;1.40;;
26042;SDS011;13818;52.156;5.382;2022-09-09T06:34:26;6.10;;;1.70;;
26042;SDS011;13818;52.156;5.382;2022-09-09T06:36:53;7.38;;;1.60;;
26042;SDS011;13818;52.156;5.382;2022-09-09T06:41:48;7.95;;;2.00;;
26042;SDS011;13818;52.156;5.382;2022-09-09T06:44:18;3.00;;;1.00;;
26042;SDS011;13818;52.156;5.382;2022-09-09T06:46:46;5.53;;;1.23;;
26042;SDS011;13818;52.156;5.382;2022-09-09T06:49:13;6.00;;;0.98;;
26042;SDS011;13818;52.156;5.382;2022-09-09T06:51:39;5.15;;;1.20;;
26042;SDS011;13818;52.156;5.382;2022-09-09T06:54:07;8.65;;;1.23;;
26042;SDS011;13818;52.156;5.382;2022-09-09T06:56:35;4.97;;;1.30;;
26042;SDS011;13818;52.156;5.382;2022-09-09T06:59:06;4.47;;;1.73;;
26042;SDS011;13818;52.156;5.382;2022-09-09T07:01:34;13.30;;;1.55;;
26042;SDS011;13818;52.156;5.382;2022-09-09T07:04:03;4.38;;;1.50;;
26042;SDS011;13818;52.156;5.382;2022-09-09T07:06:33;5.78;;;1.25;;
26042;SDS011;13818;52.156;5.382;2022-09-09T07:09:02;5.75;;;1.38;;
26042;SDS011;13818;52.156;5.382;2022-09-09T07:11:30;4.90;;;1.63;;
26042;SDS011;13818;52.156;5.382;2022-09-09T07:13:58;6.43;;;1.23;;
26042;SDS011;13818;52.156;5.382;2022-09-09T07:16:26;4.07;;;1.45;;
26042;SDS011;13818;52.156;5.382;2022-09-09T07:18:54;7.70;;;1.20;;
26042;SDS011;13818;52.156;5.382;2022-09-09T07:21:24;6.43;;;1.93;;
26042;SDS011;13818;52.156;5.382;2022-09-09T07:23:52;6.30;;;1.50;;
26042;SDS011;13818;52.156;5.382;2022-09-09T07:26:20;10.35;;;1.50;;
26042;SDS011;13818;52.156;5.382;2022-09-09T07:28:48;6.07;;;1.50;;
26042;SDS011;13818;52.156;5.382;2022-09-09T07:31:15;10.48;;;1.30;;
26042;SDS011;13818;52.156;5.382;2022-09-09T07:33:43;6.28;;;1.40;;
26042;SDS011;13818;52.156;5.382;2022-09-09T07:36:12;5.72;;;1.52;;
26042;SDS011;13818;52.156;5.382;2022-09-09T07:38:42;7.68;;;1.63;;
26042;SDS011;13818;52.156;5.382;2022-09-09T07:41:11;6.65;;;1.90;;
26042;SDS011;13818;52.156;5.382;2022-09-09T07:43:38;7.55;;;1.48;;
26042;SDS011;13818;52.156;5.382;2022-09-09T07:46:06;8.98;;;1.60;;
26042;SDS011;13818;52.156;5.382;2022-09-09T07:48:33;5.57;;;1.33;;
26042;SDS011;13818;52.156;5.382;2022-09-09T07:51:04;7.43;;;1.15;;
26042;SDS011;13818;52.156;5.382;2022-09-09T07:53:32;8.98;;;1.48;;
26042;SDS011;13818;52.156;5.382;2022-09-09T07:56:03;2.47;;;1.00;;
26042;SDS011;13818;52.156;5.382;2022-09-09T07:58:30;10.02;;;3.40;;
26042;SDS011;13818;52.156;5.382;2022-09-09T08:00:57;5.45;;;1.15;;
26042;SDS011;13818;52.156;5.382;2022-09-09T08:03:24;7.45;;;1.50;;
26042;SDS011;13818;52.156;5.382;2022-09-09T08:05:51;5.45;;;1.48;;
26042;SDS011;13818;52.156;5.382;2022-09-09T08:08:18;6.15;;;1.40;;
26042;SDS011;13818;52.156;5.382;2022-09-09T08:10:44;7.22;;;1.13;;
26042;SDS011;13818;52.156;5.382;2022-09-09T08:13:12;5.13;;;1.15;;
26042;SDS011;13818;52.156;5.382;2022-09-09T08:15:39;9.13;;;1.50;;
26042;SDS011;13818;52.156;5.382;2022-09-09T08:18:07;5.43;;;1.00;;
26042;SDS011;13818;52.156;5.382;2022-09-09T08:20:35;5.97;;;1.30;;
26042;SDS011;13818;52.156;5.382;2022-09-09T08:23:02;6.07;;;1.48;;
26042;SDS011;13818;52.156;5.382;2022-09-09T08:25:29;6.03;;;1.23;;
26042;SDS011;13818;52.156;5.382;2022-09-09T08:27:56;6.05;;;1.48;;
26042;SDS011;13818;52.156;5.382;2022-09-09T08:30:24;4.78;;;1.55;;
26042;SDS011;13818;52.156;5.382;2022-09-09T08:32:51;3.72;;;1.25;;
26042;SDS011;13818;52.156;5.382;2022-09-09T08:35:18;8.23;;;1.30;;
26042;SDS011;13818;52.156;5.382;2022-09-09T08:37:45;2.05;;;0.98;;
26042;SDS011;13818;52.156;5.382;2022-09-09T08:40:12;5.50;;;1.63;;
26042;SDS011;13818;52.156;5.382;2022-09-09T08:42:48;5.28;;;1.20;;
26042;SDS011;13818;52.156;5.382;2022-09-09T08:45:19;8.10;;;1.27;;
26042;SDS011;13818;52.156;5.382;2022-09-09T08:48:01;6.63;;;2.15;;
26042;SDS011;13818;52.156;5.382;2022-09-09T08:50:35;5.78;;;1.92;;
26042;SDS011;13818;52.156;5.382;2022-09-09T08:53:04;7.07;;;1.83;;
26042;SDS011;13818;52.156;5.382;2022-09-09T08:55:38;2.08;;;1.08;;
26042;SDS011;13818;52.156;5.382;2022-09-09T08:58:12;4.90;;;1.17;;
26042;SDS011;13818;52.156;5.382;2022-09-09T09:00:44;5.18;;;1.48;;
26042;SDS011;13818;52.156;5.382;2022-09-09T09:03:22;7.35;;;1.67;;
26042;SDS011;13818;52.156;5.382;2022-09-09T09:05:58;6.10;;;1.70;;
26042;SDS011;13818;52.156;5.382;2022-09-09T09:08:33;8.00;;;1.50;;
26042;SDS011;13818;52.156;5.382;2022-09-09T09:11:06;10.40;;;1.90;;
26042;SDS011;13818;52.156;5.382;2022-09-09T09:13:33;4.55;;;1.15;;
26042;SDS011;13818;52.156;5.382;2022-09-09T09:16:10;6.78;;;1.67;;
26042;SDS011;13818;52.156;5.382;2022-09-09T09:18:43;7.18;;;1.58;;
26042;SDS011;13818;52.156;5.382;2022-09-09T09:21:10;14.85;;;1.30;;
26042;SDS011;13818;52.156;5.382;2022-09-09T09:23:41;5.40;;;1.30;;
26042;SDS011;13818;52.156;5.382;2022-09-09T09:26:11;5.60;;;1.27;;
26042;SDS011;13818;52.156;5.382;2022-09-09T09:28:37;11.07;;;1.95;;
26042;SDS011;13818;52.156;5.382;2022-09-09T09:31:08;5.20;;;1.25;;
26042;SDS011;13818;52.156;5.382;2022-09-09T09:33:38;8.30;;;1.75;;
26042;SDS011;13818;52.156;5.382;2022-09-09T09:36:14;5.05;;;1.60;;
26042;SDS011;13818;52.156;5.382;2022-09-09T09:38:51;5.95;;;1.38;;
26042;SDS011;13818;52.156;5.382;2022-09-09T09:41:28;7.93;;;1.70;;
26042;SDS011;13818;52.156;5.382;2022-09-09T09:43:55;4.93;;;1.77;;
26042;SDS011;13818;52.156;5.382;2022-09-09T09:46:23;12.50;;;1.48;;
26042;SDS011;13818;52.156;5.382;2022-09-09T09:48:57;6.95;;;2.20;;
26042;SDS011;13818;52.156;5.382;2022-09-09T09:51:25;6.20;;;1.67;;
26042;SDS011;13818;52.156;5.382;2022-09-09T09:53:52;7.57;;;1.23;;
26042;SDS011;13818;52.156;5.382;2022-09-09T09:56:26;13.27;;;3.20;;
26042;SDS011;13818;52.156;5.382;2022-09-09T09:58:54;8.85;;;1.60;;
26042;SDS011;13818;52.156;5.382;2022-09-09T10:01:23;7.25;;;1.80;;
26042;SDS011;13818;52.156;5.382;2022-09-09T10:03:53;11.52;;;1.80;;
26042;SDS011;13818;52.156;5.382;2022-09-09T10:06:29;9.48;;;2.30;;
26042;SDS011;13818;52.156;5.382;2022-09-09T10:08:57;6.95;;;1.58;;
26042;SDS011;13818;52.156;5.382;2022-09-09T10:11:27;6.13;;;1.63;;
26042;SDS011;13818;52.156;5.382;2022-09-09T10:14:03;6.72;;;1.45;;
26042;SDS011;13818;52.156;5.382;2022-09-09T10:16:47;5.15;;;1.30;;
26042;SDS011;13818;52.156;5.382;2022-09-09T10:19:28;12.98;;;1.48;;
26042;SDS011;13818;52.156;5.382;2022-09-09T10:22:00;5.90;;;1.55;;
26042;SDS011;13818;52.156;5.382;2022-09-09T10:27:25;3.58;;;1.17;;
26042;SDS011;13818;52.156;5.382;2022-09-09T10:30:00;4.20;;;1.60;;
26042;SDS011;13818;52.156;5.382;2022-09-09T10:32:39;3.88;;;1.17;;
26042;SDS011;13818;52.156;5.382;2022-09-09T10:35:10;4.85;;;1.55;;
26042;SDS011;13818;52.156;5.382;2022-09-09T10:37:53;10.93;;;1.40;;
26042;SDS011;13818;52.156;5.382;2022-09-09T10:40:38;8.27;;;2.28;;
26042;SDS011;13818;52.156;5.382;2022-09-09T10:43:12;8.68;;;1.55;;
26042;SDS011;13818;52.156;5.382;2022-09-09T10:45:49;7.85;;;1.50;;
26042;SDS011;13818;52.156;5.382;2022-09-09T10:48:28;10.05;;;3.03;;
26042;SDS011;13818;52.156;5.382;2022-09-09T10:51:05;8.52;;;1.60;;
26042;SDS011;13818;52.156;5.382;2022-09-09T10:53:46;3.65;;;1.17;;
26042;SDS011;13818;52.156;5.382;2022-09-09T10:56:20;5.00;;;1.30;;
26042;SDS011;13818;52.156;5.382;2022-09-09T10:58:51;7.20;;;1.63;;
26042;SDS011;13818;52.156;5.382;2022-09-09T11:01:21;6.60;;;1.67;;
26042;SDS011;13818;52.156;5.382;2022-09-09T11:03:54;4.63;;;1.20;;
26042;SDS011;13818;52.156;5.382;2022-09-09T11:06:25;3.40;;;1.00;;
26042;SDS011;13818;52.156;5.382;2022-09-09T11:08:58;2.00;;;1.10;;
26042;SDS011;13818;52.156;5.382;2022-09-09T11:11:29;2.92;;;1.30;;
26042;SDS011;13818;52.156;5.382;2022-09-09T11:14:01;4.70;;;1.27;;
26042;SDS011;13818;52.156;5.382;2022-09-09T11:16:33;5.45;;;1.40;;
26042;SDS011;13818;52.156;5.382;2022-09-09T11:19:10;7.00;;;1.77;;
26042;SDS011;13818;52.156;5.382;2022-09-09T11:21:42;5.15;;;1.35;;
26042;SDS011;13818;52.156;5.382;2022-09-09T11:24:13;6.28;;;1.50;;
26042;SDS011;13818;52.156;5.382;2022-09-09T11:26:44;5.68;;;1.33;;
26042;SDS011;13818;52.156;5.382;2022-09-09T11:32:21;5.95;;;1.58;;
26042;SDS011;13818;52.156;5.382;2022-09-09T11:35:17;5.53;;;1.58;;
26042;SDS011;13818;52.156;5.382;2022-09-09T11:37:57;6.20;;;2.00;;
26042;SDS011;13818;52.156;5.382;2022-09-09T11:40:37;10.40;;;2.90;;
26042;SDS011;13818;52.156;5.382;2022-09-09T11:43:04;5.03;;;1.40;;
26042;SDS011;13818;52.156;5.382;2022-09-09T11:45:37;6.63;;;1.65;;
26042;SDS011;13818;52.156;5.382;2022-09-09T11:48:04;4.70;;;1.48;;
26042;SDS011;13818;52.156;5.382;2022-09-09T11:50:36;2.33;;;1.25;;
26042;SDS011;13818;52.156;5.382;2022-09-09T11:53:18;9.48;;;1.20;;
26042;SDS011;13818;52.156;5.382;2022-09-09T11:56:02;4.75;;;1.33;;
26042;SDS011;13818;52.156;5.382;2022-09-09T11:58:39;5.85;;;1.25;;
26042;SDS011;13818;52.156;5.382;2022-09-09T12:01:28;2.47;;;1.00;;
26042;SDS011;13818;52.156;5.382;2022-09-09T12:04:09;3.80;;;2.03;;
26042;SDS011;13818;52.156;5.382;2022-09-09T12:07:23;8.70;;;1.83;;
26042;SDS011;13818;52.156;5.382;2022-09-09T12:09:57;4.28;;;1.60;;
26042;SDS011;13818;52.156;5.382;2022-09-09T12:12:28;5.88;;;1.48;;
26042;SDS011;13818;52.156;5.382;2022-09-09T12:15:00;3.28;;;1.50;;
26042;SDS011;13818;52.156;5.382;2022-09-09T12:17:43;4.90;;;1.17;;
26042;SDS011;13818;52.156;5.382;2022-09-09T12:20:13;5.20;;;1.33;;
26042;SDS011;13818;52.156;5.382;2022-09-09T12:22:56;6.90;;;1.50;;
26042;SDS011;13818;52.156;5.382;2022-09-09T12:25:35;5.93;;;1.35;;
26042;SDS011;13818;52.156;5.382;2022-09-09T12:28:15;5.00;;;1.20;;
26042;SDS011;13818;52.156;5.382;2022-09-09T12:30:47;5.47;;;1.30;;
26042;SDS011;13818;52.156;5.382;2022-09-09T12:33:18;2.83;;;1.33;;
26042;SDS011;13818;52.156;5.382;2022-09-09T12:35:48;6.57;;;1.92;;
26042;SDS011;13818;52.156;5.382;2022-09-09T12:38:22;4.47;;;1.40;;
26042;SDS011;13818;52.156;5.382;2022-09-09T12:40:56;2.92;;;1.95;;
26042;SDS011;13818;52.156;5.382;2022-09-09T12:43:25;4.95;;;1.50;;
26042;SDS011;13818;52.156;5.382;2022-09-09T12:45:53;4.88;;;1.52;;
26042;SDS011;13818;52.156;5.382;2022-09-09T12:48:25;4.22;;;1.33;;
26042;SDS011;13818;52.156;5.382;2022-09-09T12:50:57;3.70;;;1.60;;
26042;SDS011;13818;52.156;5.382;2022-09-09T12:53:27;3.50;;;1.20;;
26042;SDS011;13818;52.156;5.382;2022-09-09T12:55:57;6.70;;;2.53;;
26042;SDS011;13818;52.156;5.382;2022-09-09T12:58:25;3.97;;;1.40;;
26042;SDS011;13818;52.156;5.382;2022-09-09T13:00:57;3.22;;;1.15;;
26042;SDS011;13818;52.156;5.382;2022-09-09T13:03:25;4.10;;;1.40;;
26042;SDS011;13818;52.156;5.382;2022-09-09T13:05:53;6.28;;;1.30;;
26042;SDS011;13818;52.156;5.382;2022-09-09T13:08:26;3.75;;;1.23;;
26042;SDS011;13818;52.156;5.382;2022-09-09T13:10:53;8.38;;;1.30;;
26042;SDS011;13818;52.156;5.382;2022-09-09T13:13:26;3.58;;;1.40;;
26042;SDS011;13818;52.156;5.382;2022-09-09T13:15:56;4.38;;;1.60;;
26042;SDS011;13818;52.156;5.382;2022-09-09T13:18:25;3.67;;;1.15;;
26042;SDS011;13818;52.156;5.382;2022-09-09T13:20:54;2.45;;;0.77;;
26042;SDS011;13818;52.156;5.382;2022-09-09T13:23:22;4.47;;;1.05;;
26042;SDS011;13818;52.156;5.382;2022-09-09T13:25:55;3.33;;;1.20;;
26042;SDS011;13818;52.156;5.382;2022-09-09T13:28:23;5.80;;;1.08;;
26042;SDS011;13818;52.156;5.382;2022-09-09T13:30:55;6.00;;;1.33;;
26042;SDS011;13818;52.156;5.382;2022-09-09T13:33:24;4.00;;;1.58;;
26042;SDS011;13818;52.156;5.382;2022-09-09T13:35:58;6.75;;;1.65;;
26042;SDS011;13818;52.156;5.382;2022-09-09T13:38:30;5.80;;;1.70;;
26042;SDS011;13818;52.156;5.382;2022-09-09T13:41:00;4.72;;;1.30;;
26042;SDS011;13818;52.156;5.382;2022-09-09T13:43:29;4.90;;;1.63;;
26042;SDS011;13818;52.156;5.382;2022-09-09T13:45:58;8.52;;;1.75;;
26042;SDS011;13818;52.156;5.382;2022-09-09T13:48:26;2.63;;;1.35;;
26042;SDS011;13818;52.156;5.382;2022-09-09T13:50:54;3.42;;;1.55;;
26042;SDS011;13818;52.156;5.382;2022-09-09T13:53:21;6.90;;;1.90;;
26042;SDS011;13818;52.156;5.382;2022-09-09T13:55:49;7.55;;;2.13;;
26042;SDS011;13818;52.156;5.382;2022-09-09T13:58:16;6.45;;;2.10;;
26042;SDS011;13818;52.156;5.382;2022-09-09T14:00:44;5.35;;;1.63;;
26042;SDS011;13818;52.156;5.382;2022-09-09T14:03:11;4.18;;;1.83;;
26042;SDS011;13818;52.156;5.382;2022-09-09T14:05:37;3.65;;;1.20;;
26042;SDS011;13818;52.156;5.382;2022-09-09T14:08:04;8.57;;;1.95;;
26042;SDS011;13818;52.156;5.382;2022-09-09T14:10:32;5.28;;;1.70;;
26042;SDS011;13818;52.156;5.382;2022-09-09T14:13:02;5.93;;;1.48;;
26042;SDS011;13818;52.156;5.382;2022-09-09T14:15:29;5.32;;;1.88;;
26042;SDS011;13818;52.156;5.382;2022-09-09T14:17:56;5.13;;;1.60;;
26042;SDS011;13818;52.156;5.382;2022-09-09T14:20:23;5.40;;;1.90;;
26042;SDS011;13818;52.156;5.382;2022-09-09T14:22:50;2.92;;;1.58;;
26042;SDS011;13818;52.156;5.382;2022-09-09T14:25:18;5.78;;;1.65;;
26042;SDS011;13818;52.156;5.382;2022-09-09T14:27:44;7.13;;;1.90;;
26042;SDS011;13818;52.156;5.382;2022-09-09T14:30:12;6.05;;;1.90;;
26042;SDS011;13818;52.156;5.382;2022-09-09T14:32:39;6.85;;;1.90;;
26042;SDS011;13818;52.156;5.382;2022-09-09T14:35:06;6.63;;;1.95;;
26042;SDS011;13818;52.156;5.382;2022-09-09T14:37:33;4.38;;;1.77;;
26042;SDS011;13818;52.156;5.382;2022-09-09T14:39:59;5.85;;;1.98;;
26042;SDS011;13818;52.156;5.382;2022-09-09T14:42:26;5.10;;;1.75;;
26042;SDS011;13818;52.156;5.382;2022-09-09T14:44:54;9.95;;;2.40;;
26042;SDS011;13818;52.156;5.382;2022-09-09T14:47:22;8.65;;;2.08;;
26042;SDS011;13818;52.156;5.382;2022-09-09T14:49:48;3.60;;;2.10;;
26042;SDS011;13818;52.156;5.382;2022-09-09T14:52:15;6.68;;;1.70;;
26042;SDS011;13818;52.156;5.382;2022-09-09T14:54:42;7.57;;;2.10;;
26042;SDS011;13818;52.156;5.382;2022-09-09T14:57:08;6.68;;;2.20;;
26042;SDS011;13818;52.156;5.382;2022-09-09T14:59:35;5.75;;;1.98;;
26042;SDS011;13818;52.156;5.382;2022-09-09T15:02:01;8.48;;;2.15;;
26042;SDS011;13818;52.156;5.382;2022-09-09T15:04:30;7.57;;;2.50;;
26042;SDS011;13818;52.156;5.382;2022-09-09T15:06:56;7.63;;;2.53;;
26042;SDS011;13818;52.156;5.382;2022-09-09T15:09:23;4.07;;;2.20;;
26042;SDS011;13818;52.156;5.382;2022-09-09T15:11:49;7.05;;;2.40;;
26042;SDS011;13818;52.156;5.382;2022-09-09T15:14:16;5.57;;;2.15;;
26042;SDS011;13818;52.156;5.382;2022-09-09T15:16:42;7.75;;;2.50;;
26042;SDS011;13818;52.156;5.382;2022-09-09T15:19:09;7.47;;;2.60;;
26042;SDS011;13818;52.156;5.382;2022-09-09T15:21:36;5.93;;;2.10;;